Latest Weather Observations for Moruya Airport

IDN60801

Issued at 11:33 pm EST Wednesday 28 September 2016 (issued every 30 minutes, with the page automatically refreshed every 10 minutes)

About weather observations | Map of weather stations | Latest weather observations for NSW | Other Formats
Station Details ID: 069148 Name: MORUYA AIRPORT AWS Lat: -35.90 Lon: 150.14 Height: 4.0 m
Data from the previous 72 hours. | See also: Recent months at Moruya Airport
Date/Time
EST
Temp
°C
App
Temp
°C
Dew
Point
°C
Rel
Hum
%
Delta-T
°C
Wind Press
QNH
hPa
Press
MSL
hPa
Rain since
9am
mm
Dir  Spd
km/h
Gust
km/h
Spd
kts
Gust
kts
28/11:30pm 9.9 8.3 8.0 88 0.9 NW 6 7 3 4 1007.3 1007.2 0.0
28/11:00pm 9.6 7.8 7.9 89 0.8 NNW 7 9 4 5 1007.7 1007.6 0.0
28/10:30pm 10.1 8.5 7.9 86 1.1 NW 6 9 3 5 1008.1 1008.0 0.0
28/10:00pm 10.8 8.7 8.2 84 1.3 NNW 9 15 5 8 1008.6 1008.5 0.0
28/09:30pm 10.5 8.4 8.1 85 1.2 NNW 9 11 5 6 1008.8 1008.7 0.0
28/09:00pm 10.5 8.7 7.9 84 1.3 NW 7 9 4 5 1009.1 1009.1 0.0
28/08:30pm 10.8 9.0 7.9 82 1.4 NW 7 9 4 5 1009.5 1009.5 0.0
28/08:00pm 11.8 9.9 7.7 76 2.0 NNW 7 9 4 5 1009.5 1009.5 0.0
28/07:30pm 13.4 11.2 7.8 69 2.8 N 9 13 5 7 1009.6 1009.6 0.0
28/07:00pm 14.5 12.0 8.2 66 3.2 N 11 15 6 8 1009.5 1009.5 0.0
28/06:30pm 14.5 12.0 8.0 65 3.2 N 11 17 6 9 1009.6 1009.6 0.0
28/06:00pm 15.2 10.9 8.0 62 3.6 NNE 20 26 11 14 1009.8 1009.8 0.0
28/05:30pm 15.4 11.4 8.2 62 3.6 NE 19 28 10 15 1009.8 1009.8 0.0
28/05:00pm 16.0 12.1 8.5 61 3.8 NE 19 24 10 13 1009.9 1009.9 0.0
28/04:30pm 16.6 12.5 8.6 59 4.1 NE 20 26 11 14 1010.0 1010.0 0.0
28/04:00pm 16.8 12.5 7.7 55 4.6 ENE 20 26 11 14 1010.0 1010.0 0.0
28/03:30pm 17.0 12.7 7.9 55 4.6 ENE 20 26 11 14 1010.2 1010.2 0.0
28/03:00pm 17.4 13.0 7.5 52 5.0 ENE 20 24 11 13 1010.6 1010.6 0.0
28/02:30pm 17.5 13.5 8.9 57 4.5 ENE 20 24 11 13 1011.0 1011.0 0.0
28/02:00pm 17.7 13.2 8.6 55 4.7 ENE 22 26 12 14 1011.4 1011.4 0.0
28/01:30pm 17.5 13.1 7.3 51 5.1 ENE 20 26 11 14 1011.9 1011.9 0.0
28/01:00pm 17.2 12.6 5.8 47 5.5 ENE 19 22 10 12 1012.2 1012.2 0.0
28/12:30pm 17.3 13.0 7.1 51 5.1 ENE 19 22 10 12 1012.5 1012.5 0.0
28/12:00pm 16.9 12.8 6.1 49 5.3 ENE 17 20 9 11 1012.8 1012.8 0.0
28/11:30am 16.9 13.2 6.4 50 5.1 ENE 15 20 8 11 1013.0 1013.0 0.0
28/11:00am 16.9 13.5 6.1 49 5.3 ENE 13 17 7 9 1013.3 1013.3 0.0
28/10:30am 16.3 13.1 5.3 48 5.3 ENE 11 13 6 7 1013.7 1013.7 0.0
28/10:00am 15.8 12.8 6.0 52 4.7 ENE 11 15 6 8 1014.1 1014.1 0.0
28/09:30am 15.6 12.9 5.8 52 4.7 E 9 11 5 6 1014.3 1014.3 0.0
28/09:00am 14.9 12.2 5.4 53 4.5 E 9 11 5 6 1014.3 1014.3 0.0
28/08:30am 13.9 11.6 5.8 58 3.8 SSW 7 11 4 6 1014.4 1014.4 0.0
28/08:00am 12.0 8.9 5.4 64 3.1 SW 11 13 6 7 1014.6 1014.6 0.0
28/07:30am 10.2 7.1 5.6 73 2.1 SW 11 13 6 7 1014.4 1014.4 0.0
28/07:00am 8.5 5.7 5.3 80 1.4 WSW 9 11 5 6 1014.1 1014.1 0.0
28/06:30am 6.2 3.8 5.2 93 0.4 SW 7 9 4 5 1013.8 1013.8 0.0
28/06:00am 4.5 3.1 3.5 93 0.4 CALM 0 0 0 0 1013.6 1013.6 0.0
28/05:30am 4.1 2.6 2.9 92 0.5 CALM 0 0 0 0 1013.2 1013.2 0.0
28/05:00am 4.7 3.3 3.4 91 0.5 CALM 0 0 0 0 1013.1 1013.1 0.0
28/04:30am 5.5 4.2 4.3 92 0.5 CALM 0 0 0 0 1012.9 1012.9 0.0
28/04:00am 5.7 3.3 4.5 92 0.5 W 6 7 3 4 1012.6 1012.6 0.0
28/03:30am 5.6 4.0 4.4 92 0.5 WSW 2 6 1 3 1012.4 1012.4 0.0
28/03:00am 6.0 3.5 4.6 91 0.6 WSW 7 11 4 6 1012.4 1012.4 0.0
28/02:30am 6.2 3.9 4.8 91 0.6 NNW 6 7 3 4 1012.4 1012.4 0.0
28/02:00am 6.8 4.4 5.3 90 0.7 W 7 11 4 6 1012.3 1012.3 0.0
28/01:30am 7.1 4.7 5.3 88 0.8 WSW 7 9 4 5 1012.3 1012.3 0.0
28/01:00am 8.3 5.7 6.1 86 1.0 WNW 9 13 5 7 1012.5 1012.5 0.0
28/12:30am 8.5 6.4 6.6 88 0.9 W 7 11 4 6 1012.7 1012.7 0.0
28/12:00am 8.0 5.8 6.3 89 0.8 WSW 7 11 4 6 1012.7 1012.7 0.0
 
Date/Time
EST
Temp
°C
App
Temp
°C
Dew
Point
°C
Rel
Hum
%
Delta-T
°C
Wind Press
QNH
hPa
Press
MSL
hPa
Rain since
9am
mm
Dir  Spd
km/h
Gust
km/h
Spd
kts
Gust
kts
27/11:30pm 8.0 6.0 6.3 89 0.8 WNW 6 9 3 5 1012.7 1012.7 0.0
27/11:00pm 8.2 6.1 6.7 90 0.7 W 7 9 4 5 1012.6 1012.6 0.0
27/10:30pm 6.8 4.4 5.4 91 0.6 W 7 11 4 6 1012.5 1012.5 0.0
27/10:00pm 6.8 4.4 5.1 89 0.7 W 7 9 4 5 1012.6 1012.6 0.0
27/09:30pm 7.5 5.2 5.6 88 0.8 WNW 7 11 4 6 1012.5 1012.5 0.0
27/09:00pm 8.6 6.7 6.6 87 0.9 WSW 6 7 3 4 1012.4 1012.4 0.0
27/08:30pm 9.0 7.5 6.6 85 1.1 WSW 4 7 2 4 1012.2 1012.2 0.0
27/08:00pm 9.8 7.6 6.3 79 1.6 WSW 7 9 4 5 1012.0 1012.0 0.0
27/07:30pm 10.8 8.0 6.9 77 1.8 SW 11 13 6 7 1011.6 1011.6 0.0
27/07:00pm 11.9 9.4 6.4 69 2.6 WSW 9 11 5 6 1011.2 1011.2 0.0
27/06:30pm 14.0 11.1 6.6 61 3.6 SSW 11 19 6 10 1010.6 1010.6 0.0
27/06:00pm 14.6 10.5 7.9 64 3.3 S 19 24 10 13 1009.9 1009.9 0.0
27/05:30pm 14.9 10.7 7.5 61 3.7 SSE 19 28 10 15 1009.6 1009.6 0.0
27/05:00pm 15.6 10.7 6.9 56 4.3 SSE 22 32 12 17 1009.2 1009.2 0.0
27/04:30pm 15.6 10.0 7.1 57 4.2 S 26 39 14 21 1008.7 1008.6 0.0
27/04:00pm 16.5 10.8 6.9 53 4.8 SSE 26 35 14 19 1008.1 1008.0 0.0
27/03:30pm 16.2 9.7 6.3 52 4.8 SSE 30 39 16 21 1007.7 1007.6 0.0
27/03:00pm 16.6 10.6 7.0 53 4.8 SSE 28 37 15 20 1007.4 1007.3 0.0
27/02:30pm 15.3 9.4 7.3 59 4.0 SSE 28 41 15 22 1007.3 1007.2 0.0
27/02:00pm 16.3 10.1 2.0 38 6.4 SSW 24 39 13 21 1007.2 1007.1 0.0
27/01:30pm 16.3 9.8 6.7 53 4.7 SSE 30 43 16 23 1007.0 1006.9 0.0
27/01:25pm 15.8 9.7 6.8 55 4.4 S 28 44 15 24 1006.9 1006.8 0.0
27/01:00pm 17.3 12.6 3.2 39 6.5 S 17 30 9 16 1006.5 1006.4 0.0
27/12:30pm 17.4 12.9 2.2 36 6.9 SSW 15 37 8 20 1006.6 1006.5 0.0
27/12:00pm 16.5 12.2 7.7 56 4.4 SE 20 30 11 16 1006.5 1006.4 0.0
27/11:30am 17.8 12.3 5.7 45 5.9 SSW 24 43 13 23 1006.3 1006.2 0.0
27/11:00am 18.0 12.0 -1.3 27 8.2 WSW 20 39 11 21 1006.2 1006.1 0.0
27/10:30am 19.4 13.5 -0.6 26 8.7 WSW 20 37 11 20 1006.1 1006.0 0.0
27/10:00am 18.6 13.5 3.3 36 7.2 W 19 32 10 17 1006.2 1006.1 0.0
27/09:30am 17.5 13.5 4.8 43 6.1 WNW 15 26 8 14 1006.4 1006.3 0.0
27/09:00am 16.7 12.2 5.9 49 5.3 WNW 19 30 10 16 1006.6 1006.5 0.0
27/08:30am 15.4 11.9 7.2 58 4.0 N 15 20 8 11 1006.8 1006.7 0.0
27/08:00am 14.4 11.6 7.0 61 3.6 N 11 15 6 8 1007.3 1007.2 0.0
27/07:30am 12.5 9.5 6.1 65 3.0 NNW 11 15 6 8 1007.5 1007.4 0.0
27/07:00am 10.1 8.2 7.5 84 1.2 N 7 11 4 6 1007.9 1007.8 0.0
27/06:30am 8.1 5.2 6.4 89 0.8 NNW 11 13 6 7 1008.1 1008.0 0.0
27/06:00am 7.7 4.7 5.8 88 0.9 NW 11 13 6 7 1008.2 1008.1 0.0
27/05:30am 7.5 5.3 6.1 91 0.6 NW 7 11 4 6 1008.3 1008.2 0.0
27/05:00am 7.2 5.1 5.8 91 0.6 NW 6 11 3 6 1008.3 1008.2 0.0
27/04:30am 6.6 4.5 5.7 94 0.4 WNW 6 11 3 6 1008.6 1008.5 0.0
27/04:00am 6.3 4.9 5.4 94 0.4 WNW 2 6 1 3 1008.4 1008.3 0.0
27/03:30am 5.9 3.6 5.0 94 0.4 W 6 9 3 5 1009.0 1009.0 0.0
27/03:00am 5.3 4.1 4.4 94 0.4 CALM 0 6 0 3 1009.1 1009.1 0.0
27/02:30am 4.5 3.1 3.5 93 0.4 CALM 0 0 0 0 1009.6 1009.6 0.0
27/02:00am 5.6 3.1 4.6 93 0.4 NNW 7 11 4 6 1010.2 1010.2 0.0
27/01:30am 4.8 2.6 3.6 92 0.5 SW 4 9 2 5 1010.6 1010.6 0.0
27/01:00am 5.9 4.0 4.9 93 0.4 W 4 9 2 5 1011.2 1011.2 0.0
27/12:30am 6.4 4.2 5.4 93 0.4 WNW 6 9 3 5 1011.1 1011.1 0.0
27/12:00am 6.5 4.7 5.3 92 0.5 WSW 4 7 2 4 1011.3 1011.3 0.0
 
Date/Time
EST
Temp
°C
App
Temp
°C
Dew
Point
°C
Rel
Hum
%
Delta-T
°C
Wind Press
QNH
hPa
Press
MSL
hPa
Rain since
9am
mm
Dir  Spd
km/h
Gust
km/h
Spd
kts
Gust
kts
26/11:30pm 6.6 4.7 5.1 90 0.7 NW 4 6 2 3 1011.6 1011.6 0.0
26/11:00pm 7.8 5.8 6.1 89 0.8 WNW 6 9 3 5 1012.1 1012.1 0.0
26/10:30pm 8.8 8.0 6.4 85 1.1 CALM 0 6 0 3 1012.3 1012.3 0.0
26/10:00pm 9.8 6.9 6.7 81 1.5 WSW 11 15 6 8 1012.5 1012.5 0.0
26/09:30pm 10.2 7.3 6.7 79 1.6 WSW 11 17 6 9 1012.2 1012.2 0.0
26/09:00pm 9.3 6.9 7.1 86 1.0 WSW 9 15 5 8 1012.0 1012.0 0.0
26/08:30pm 9.1 6.7 6.9 86 1.0 SW 9 13 5 7 1011.9 1011.9 0.0
26/08:00pm 9.0 7.0 6.4 84 1.2 WSW 6 9 3 5 1011.9 1011.9 0.0
26/07:30pm 10.1 8.3 7.3 83 1.3 WSW 6 9 3 5 1011.7 1011.7 0.0
26/07:00pm 11.0 9.1 7.7 80 1.6 NW 7 9 4 5 1011.5 1011.5 0.0
26/06:30pm 11.8 9.5 7.5 75 2.1 WNW 9 9 5 5 1011.4 1011.4 0.0
26/06:00pm 13.1 10.6 6.7 65 3.1 NNW 9 13 5 7 1011.0 1011.0 0.0
26/05:30pm 15.0 12.7 5.8 54 4.4 SE 7 9 4 5 1010.6 1010.6 0.0
26/05:00pm 15.4 13.1 5.6 52 4.7 ESE 7 11 4 6 1010.3 1010.3 0.0
26/04:30pm 15.3 12.6 5.8 53 4.5 E 9 13 5 7 1010.0 1010.0 0.0
26/04:00pm 15.4 12.2 5.3 51 4.8 ESE 11 15 6 8 1009.7 1009.7 0.0
26/03:30pm 15.5 12.1 5.7 52 4.7 ESE 13 19 7 10 1009.5 1009.5 0.0
26/03:00pm 15.9 12.2 6.1 52 4.8 ESE 15 20 8 11 1009.3 1009.3 0.0
26/02:30pm 15.7 12.0 4.7 48 5.2 ESE 13 19 7 10 1009.4 1009.4 0.0
26/02:00pm 16.0 12.0 5.0 48 5.2 E 15 20 8 11 1009.6 1009.6 0.0
26/01:30pm 16.2 12.1 4.3 45 5.6 ESE 15 20 8 11 1010.0 1010.0 0.0
26/01:00pm 16.2 11.8 4.6 46 5.5 ESE 17 20 9 11 1010.3 1010.3 0.0
26/12:30pm 16.7 12.3 4.7 45 5.7 ESE 17 20 9 11 1010.6 1010.6 0.0
26/12:00pm 15.9 11.2 3.4 43 5.7 E 17 19 9 10 1010.8 1010.8 0.0
26/11:30am 17.1 14.6 3.8 41 6.2 W 6 11 3 6 1011.2 1011.2 0.0
26/11:00am 16.8 13.6 5.1 46 5.6 SW 11 19 6 10 1011.6 1011.6 0.0
26/10:30am 15.8 12.7 5.7 51 4.8 WNW 11 17 6 9 1012.0 1012.0 0.0
26/10:00am 15.3 11.3 4.7 49 5.0 WSW 15 20 8 11 1012.3 1012.3 0.0
26/09:30am 14.4 11.9 6.5 59 3.8 WSW 9 13 5 7 1012.8 1012.8 0.0
26/09:00am 13.9 11.5 7.0 63 3.4 WSW 9 15 5 8 1013.0 1013.0 3.0
26/08:30am 12.6 9.8 6.9 68 2.7 WSW 11 17 6 9 1013.1 1013.1 3.0
26/08:00am 11.6 8.9 7.3 75 2.1 WSW 11 17 6 9 1013.2 1013.2 3.0
26/07:30am 11.5 8.2 6.6 72 2.3 WSW 13 19 7 10 1013.2 1013.2 3.0
26/07:00am 10.6 7.8 6.9 78 1.7 WSW 11 15 6 8 1013.0 1013.0 3.0
26/06:30am 9.4 7.2 7.8 90 0.8 WSW 9 13 5 7 1012.9 1012.9 3.0
26/06:00am 8.7 6.4 7.6 93 0.5 W 9 13 5 7 1012.6 1012.6 3.0
26/05:30am 9.1 7.5 8.2 94 0.4 W 6 7 3 4 1012.5 1012.5 3.0
26/05:14am 9.6 8.0 8.7 94 0.4 WNW 7 11 4 6 1012.4 1012.4 3.0
26/05:00am 9.6 8.1 8.5 93 0.5 WSW 6 9 3 5 1012.4 1012.4 3.0
26/04:52am 9.8 8.4 8.7 93 0.5 WSW 6 7 3 4 1012.4 1012.4 3.0
26/04:38am 9.8 8.4 8.7 93 0.5 WSW 6 7 3 4 1012.2 1012.2 3.0
26/04:30am 9.8 8.8 8.7 93 0.5 WSW 4 7 2 4 1012.2 1012.2 3.0
26/04:18am 10.0 9.7 8.8 92 0.6 CALM 0 6 0 3 1012.1 1012.1 3.0
26/04:00am 10.3 10.1 9.2 93 0.5 CALM 0 0 0 0 1012.0 1012.0 3.0
26/03:30am 10.5 10.4 9.3 92 0.6 CALM 0 0 0 0 1011.9 1011.9 3.0
26/03:00am 11.0 10.6 9.6 91 0.7 WSW 2 6 1 3 1011.9 1011.9 3.0
26/02:30am 10.9 10.4 9.3 90 0.8 W 2 7 1 4 1011.9 1011.9 3.0
26/02:00am 10.9 10.4 9.2 89 0.8 W 2 7 1 4 1012.0 1012.0 3.0
26/01:30am 11.1 9.9 9.5 90 0.8 WSW 6 7 3 4 1012.1 1012.1 3.0
26/01:00am 11.0 9.8 9.4 90 0.8 WSW 6 7 3 4 1012.4 1012.4 3.0
26/12:30am 11.3 9.9 9.6 89 0.9 WSW 7 9 4 5 1012.4 1012.4 3.0
26/12:00am 11.4 10.1 10.0 91 0.7 WSW 7 9 4 5 1012.3 1012.3 3.0

Other Formats:

Comma delimited format used in spreadsheet applications
http://www.bom.gov.au/fwo/IDN60801/IDN60801.95937.axf

JavaScript Object Notation format (JSON) in row-major order
http://www.bom.gov.au/fwo/IDN60801/IDN60801.95937.json